Beaver Crossing, Nebraska
Current Conditions -  °F | °C
As of 8:15 AM on Thursday 29 Jan 2015 (Local Time) from KJYR Reporting Station
Overcast Overcast  
Wind Chill: 28°   Ceiling: 2800
Heat Index: 37°   Visibility: 10mi
Dew Point: 28°   Wind: 17mph
Humidity: 70%   Direction: 350°N
Pressure: 30.34"   Gusts: 26mph
Location:  40.78°N, 97.28°W
Report Text: KJYR 291415Z AUTO 35015G23KT 10SM OVC028 03/M02 A3034 RMK AO2
Loading
Personal Weather Stations






























Interactive Weather Map New forecast layout! Learn more

10-Day Weather Forecast

Advertisements
Track Severe Weather on mobile